Time;durP1;ratioP1;P1;durP2;ratioP2;P2;SDS_P1;SDS_P2;PMS_P1;PMS_P2;Temp;Humidity;BMP_temperature;BMP_pressure;BME280_temperature;BME280_humidity;BME280_pressure;Samples;Min_cycle;Max_cycle;Signal;HPM_P1;HPM_P2
2022/07/28 00:00:26;;;;;;;1.33;0.60;;;20.60;61.30;;;;;;5052463;28;20036;-81
2022/07/28 00:02:52;;;;;;;2.55;0.60;;;20.60;61.40;;;;;;5052802;28;20021;-81
2022/07/28 00:05:18;;;;;;;1.33;0.52;;;20.60;61.50;;;;;;5052756;28;20463;-81
2022/07/28 00:07:44;;;;;;;3.30;0.50;;;20.50;61.50;;;;;;5054168;28;20099;-82
2022/07/28 00:10:10;;;;;;;2.53;0.50;;;20.50;61.50;;;;;;5053425;28;20029;-81
2022/07/28 00:12:36;;;;;;;1.60;0.60;;;20.50;61.70;;;;;;5052334;28;20029;-81
2022/07/28 00:15:02;;;;;;;1.63;0.60;;;20.50;61.50;;;;;;5053120;28;20039;-81
2022/07/28 00:17:27;;;;;;;1.70;0.52;;;20.50;61.80;;;;;;5052490;28;20033;-81
2022/07/28 00:19:53;;;;;;;1.70;0.60;;;20.50;61.60;;;;;;5053895;28;20554;-81
2022/07/28 00:22:19;;;;;;;1.67;0.52;;;20.50;61.70;;;;;;5052227;28;20060;-82
2022/07/28 00:24:45;;;;;;;0.93;0.70;;;20.50;61.90;;;;;;5053048;28;20025;-80
2022/07/28 00:27:10;;;;;;;1.83;0.50;;;20.40;61.80;;;;;;5052817;28;20052;-82
2022/07/28 00:29:36;;;;;;;1.10;0.30;;;20.40;61.90;;;;;;5052653;28;20028;-81
2022/07/28 00:32:02;;;;;;;0.77;0.50;;;20.40;62.00;;;;;;5053901;28;20374;-81
2022/07/28 00:34:27;;;;;;;2.47;0.65;;;20.30;62.00;;;;;;5052165;28;20060;-81
2022/07/28 00:36:54;;;;;;;1.15;0.50;;;20.30;62.20;;;;;;5052635;28;20080;-81
2022/07/28 00:39:19;;;;;;;2.72;0.45;;;20.30;62.30;;;;;;5053214;28;20072;-82
2022/07/28 00:41:45;;;;;;;2.25;0.88;;;20.30;62.50;;;;;;5052819;28;20048;-81
2022/07/28 00:44:11;;;;;;;1.52;0.50;;;20.30;62.40;;;;;;5052581;28;20075;-81
2022/07/28 00:46:36;;;;;;;1.55;0.40;;;20.30;62.50;;;;;;5052154;28;20029;-82
2022/07/28 00:49:02;;;;;;;1.42;0.52;;;20.30;62.60;;;;;;5052908;28;20045;-81
2022/07/28 00:51:29;;;;;;;1.02;0.50;;;20.30;62.50;;;;;;5052238;28;20029;-79
2022/07/28 00:53:55;;;;;;;2.92;0.60;;;20.30;62.70;;;;;;5052360;28;20059;-81
2022/07/28 00:56:21;;;;;;;2.53;0.60;;;20.20;62.70;;;;;;5052121;28;20029;-82
2022/07/28 00:58:47;;;;;;;1.30;0.60;;;20.30;63.00;;;;;;5052150;28;20493;-82
2022/07/28 01:01:18;;;;;;;1.10;0.50;;;20.20;63.00;;;;;;5054094;28;20092;-82
2022/07/28 01:03:47;;;;;;;1.97;0.30;;;20.20;63.50;;;;;;5056264;28;20032;-82
2022/07/28 01:06:27;;;;;;;2.38;0.60;;;20.10;63.20;;;;;;5057262;28;20032;-82
2022/07/28 01:09:16;;;;;;;3.08;0.60;;;20.10;63.70;;;;;;5057124;28;20489;-82
2022/07/28 01:11:51;;;;;;;0.98;0.40;;;20.00;63.40;;;;;;5056457;28;20025;-82
2022/07/28 01:14:30;;;;;;;1.50;0.68;;;20.00;63.60;;;;;;5057085;28;20489;-82
2022/07/28 01:17:04;;;;;;;2.80;0.57;;;20.00;63.60;;;;;;5056209;28;20033;-82
2022/07/28 01:19:39;;;;;;;4.35;0.60;;;20.00;63.60;;;;;;5055532;28;20128;-82
2022/07/28 01:22:09;;;;;;;0.60;0.50;;;20.00;63.60;;;;;;5056789;28;20055;-82
2022/07/28 01:24:57;;;;;;;2.28;0.70;;;20.10;63.60;;;;;;5055370;28;20025;-82
2022/07/28 01:27:53;;;;;;;1.30;0.63;;;20.10;63.80;;;;;;5055280;28;20056;-82
2022/07/28 01:30:34;;;;;;;3.22;0.75;;;20.00;64.30;;;;;;5055395;28;20440;-82
2022/07/28 01:33:48;;;;;;;1.77;0.77;;;20.10;64.20;;;;;;5056089;28;20031;-82
2022/07/28 01:36:17;;;;;;;4.07;0.68;;;20.10;64.30;;;;;;5050176;28;20064;-82
2022/07/28 01:38:46;;;;;;;1.92;0.73;;;20.10;64.20;;;;;;5056099;28;20029;-81
2022/07/28 01:41:16;;;;;;;1.75;0.68;;;20.10;64.50;;;;;;5056572;28;20104;-81
2022/07/28 01:43:50;;;;;;;2.85;0.52;;;20.00;64.60;;;;;;5054954;28;20056;-82
2022/07/28 01:46:16;;;;;;;0.90;0.30;;;20.00;64.50;;;;;;5055414;28;20040;-82
2022/07/28 01:48:45;;;;;;;2.53;0.50;;;20.00;64.60;;;;;;5054882;28;20078;-82
2022/07/28 01:51:13;;;;;;;5.28;3.03;;;19.90;64.80;;;;;;5056341;28;20551;-82
2022/07/28 01:53:40;;;;;;;1.48;0.90;;;19.90;65.20;;;;;;5055058;28;20435;-82
2022/07/28 01:56:07;;;;;;;1.10;0.45;;;19.90;65.50;;;;;;5055050;28;20029;-82
2022/07/28 01:58:34;;;;;;;3.88;0.80;;;19.90;65.80;;;;;;5055853;28;20037;-83
2022/07/28 02:01:02;;;;;;;1.85;0.63;;;19.90;65.90;;;;;;5056023;28;20028;-83
2022/07/28 02:03:30;;;;;;;1.15;0.70;;;19.90;66.00;;;;;;5054418;28;20025;-83
2022/07/28 02:05:57;;;;;;;1.55;0.50;;;19.80;65.90;;;;;;5054989;28;20024;-81
2022/07/28 02:08:24;;;;;;;1.10;0.50;;;19.80;65.60;;;;;;5054418;28;20143;-83
2022/07/28 02:13:38;;;;;;;2.22;0.50;;;19.80;65.30;;;;;;5055904;28;20035;-82
2022/07/28 02:16:06;;;;;;;3.95;0.50;;;19.80;64.90;;;;;;5054926;28;20025;-82
2022/07/28 02:18:33;;;;;;;0.70;0.38;;;19.80;65.00;;;;;;5054372;28;20037;-82
2022/07/28 02:21:01;;;;;;;1.40;0.40;;;19.80;64.90;;;;;;5054612;28;20033;-81
2022/07/28 02:23:27;;;;;;;1.08;0.50;;;19.80;64.80;;;;;;5055209;28;20032;-82
2022/07/28 02:25:56;;;;;;;1.88;0.65;;;19.70;65.00;;;;;;5054935;28;20036;-82
2022/07/28 02:28:25;;;;;;;5.32;0.60;;;19.60;65.10;;;;;;5054178;28;20094;-89
2022/07/28 02:31:12;;;;;;;1.48;0.43;;;19.60;65.00;;;;;;5054883;28;20131;-82
2022/07/28 02:33:41;;;;;;;1.27;0.50;;;19.60;65.10;;;;;;5054147;28;20028;-82
2022/07/28 02:36:14;;;;;;;1.23;0.43;;;19.60;65.00;;;;;;5054606;28;20034;-82
2022/07/28 02:38:43;;;;;;;3.45;1.20;;;19.60;65.00;;;;;;5054148;28;20127;-82
2022/07/28 02:41:21;;;;;;;3.13;0.60;;;19.60;65.10;;;;;;5054398;28;20115;-82
2022/07/28 02:43:47;;;;;;;1.45;0.50;;;19.50;65.40;;;;;;5053912;28;20021;-82
2022/07/28 02:46:17;;;;;;;2.97;0.80;;;19.50;65.50;;;;;;5054416;28;20112;-81
2022/07/28 02:48:48;;;;;;;3.42;0.65;;;19.50;65.70;;;;;;5053358;28;20037;-81
2022/07/28 02:51:16;;;;;;;1.80;0.40;;;19.50;66.00;;;;;;5054525;28;20025;-81
2022/07/28 02:53:42;;;;;;;2.63;0.47;;;19.40;65.70;;;;;;5053585;28;20033;-81
2022/07/28 02:56:09;;;;;;;1.58;0.73;;;19.40;65.70;;;;;;5054920;28;20024;-81
2022/07/28 02:58:36;;;;;;;1.02;0.43;;;19.40;65.60;;;;;;5053504;28;20466;-81
2022/07/28 03:01:02;;;;;;;3.53;0.60;;;19.40;65.70;;;;;;5054188;28;20051;-81
2022/07/28 03:03:29;;;;;;;2.25;0.40;;;19.40;65.70;;;;;;5053762;28;20079;-82
2022/07/28 03:05:55;;;;;;;2.97;0.60;;;19.30;65.60;;;;;;5053902;28;20057;-81
2022/07/28 03:08:20;;;;;;;1.50;0.57;;;19.30;65.70;;;;;;5053882;28;20025;-81
2022/07/28 03:10:46;;;;;;;3.00;0.60;;;19.20;65.80;;;;;;5052988;28;20420;-83
2022/07/28 03:13:13;;;;;;;1.33;0.85;;;19.20;65.80;;;;;;5054010;28;20050;-82
2022/07/28 03:15:41;;;;;;;3.65;0.50;;;19.10;66.10;;;;;;5053278;28;20035;-82
2022/07/28 03:18:07;;;;;;;1.25;0.60;;;19.10;66.30;;;;;;5053866;28;20508;-83
2022/07/28 03:20:33;;;;;;;2.10;0.50;;;19.10;66.20;;;;;;5053038;28;20028;-83
2022/07/28 03:22:58;;;;;;;1.17;0.40;;;19.10;66.30;;;;;;5053749;28;20028;-82
2022/07/28 03:25:42;;;;;;;2.03;0.55;;;19.10;66.50;;;;;;5053994;28;20040;-82
2022/07/28 03:28:13;;;;;;;1.70;0.80;;;19.00;67.40;;;;;;5067784;28;20127;-83
2022/07/28 03:30:43;;;;;;;4.47;0.50;;;19.00;66.90;;;;;;5056521;28;20028;-83
2022/07/28 03:33:10;;;;;;;3.08;0.70;;;19.00;66.90;;;;;;5075031;28;20021;-83
2022/07/28 03:35:38;;;;;;;3.20;0.50;;;18.90;66.80;;;;;;5073710;28;20044;-83
2022/07/28 03:38:12;;;;;;;1.27;0.40;;;18.90;66.80;;;;;;5081438;28;20033;-83
2022/07/28 03:40:38;;;;;;;1.92;0.70;;;18.90;66.90;;;;;;5082783;28;20036;-82
2022/07/28 03:43:07;;;;;;;4.13;0.70;;;18.90;67.10;;;;;;5065847;28;20028;-83
2022/07/28 03:45:33;;;;;;;3.05;0.60;;;18.90;67.20;;;;;;5065094;28;20024;-83
2022/07/28 03:47:59;;;;;;;3.47;0.45;;;18.90;67.30;;;;;;5083724;28;20080;-84
2022/07/28 03:50:27;;;;;;;1.40;0.50;;;18.80;67.30;;;;;;5061805;28;20056;-82
2022/07/28 03:52:54;;;;;;;2.22;0.70;;;18.80;67.30;;;;;;5074234;28;20450;-83
2022/07/28 03:55:20;;;;;;;3.50;0.60;;;18.80;67.40;;;;;;5056560;28;20048;-84
2022/07/28 03:57:46;;;;;;;1.50;0.70;;;18.80;67.50;;;;;;5055894;28;20074;-83
2022/07/28 04:00:14;;;;;;;3.42;0.35;;;18.80;67.60;;;;;;5056184;28;20392;-82
2022/07/28 04:02:42;;;;;;;2.28;0.60;;;18.80;67.80;;;;;;5056232;28;20086;-83
2022/07/28 04:05:10;;;;;;;3.92;0.63;;;18.70;67.70;;;;;;5056178;28;20096;-83
2022/07/28 04:07:36;;;;;;;3.13;0.60;;;18.70;68.10;;;;;;5073253;28;20067;-83
2022/07/28 04:10:03;;;;;;;2.17;0.45;;;18.80;68.10;;;;;;5056293;28;20029;-83
2022/07/28 04:12:28;;;;;;;1.48;0.40;;;18.70;68.30;;;;;;5073888;28;20482;-84
2022/07/28 04:14:54;;;;;;;1.70;0.52;;;18.60;68.20;;;;;;5056422;28;20031;-82
2022/07/28 04:17:20;;;;;;;4.75;0.55;;;18.60;68.30;;;;;;5056118;28;20028;-82
2022/07/28 04:19:45;;;;;;;3.28;0.50;;;18.60;68.50;;;;;;5055430;28;20040;-82
2022/07/28 04:22:11;;;;;;;4.05;0.70;;;18.60;68.60;;;;;;5056374;28;20071;-82
2022/07/28 04:24:36;;;;;;;1.95;0.60;;;18.60;68.40;;;;;;5055595;28;20028;-83
2022/07/28 04:27:02;;;;;;;1.88;0.50;;;18.60;68.60;;;;;;5073515;28;20401;-83
2022/07/28 04:29:28;;;;;;;1.20;0.50;;;18.60;68.70;;;;;;5056015;28;20394;-83
2022/07/28 04:31:53;;;;;;;2.83;0.50;;;18.60;68.80;;;;;;5055717;28;20032;-82
2022/07/28 04:34:19;;;;;;;1.95;0.50;;;18.60;68.60;;;;;;5055940;28;20028;-82
2022/07/28 04:36:44;;;;;;;3.70;0.55;;;18.60;68.50;;;;;;5057567;28;20038;-83
2022/07/28 04:39:10;;;;;;;4.32;0.50;;;18.60;68.80;;;;;;5059688;28;20032;-83
2022/07/28 04:41:37;;;;;;;1.35;0.70;;;18.70;68.70;;;;;;5059352;28;20107;-83
2022/07/28 04:44:03;;;;;;;4.22;0.80;;;18.70;68.70;;;;;;5077387;28;20077;-85
2022/07/28 04:46:29;;;;;;;3.53;0.50;;;18.70;68.70;;;;;;5059697;28;20020;-84
2022/07/28 04:48:54;;;;;;;0.70;0.50;;;18.60;68.70;;;;;;5059041;28;20036;-83
2022/07/28 04:51:21;;;;;;;3.20;1.02;;;18.60;68.70;;;;;;5060190;28;20428;-84
2022/07/28 04:53:47;;;;;;;2.08;0.52;;;18.70;68.80;;;;;;5077132;28;20055;-84
2022/07/28 04:56:13;;;;;;;1.52;0.50;;;18.60;68.70;;;;;;5060324;28;20032;-84
2022/07/28 04:58:38;;;;;;;3.05;0.60;;;18.60;68.60;;;;;;5058992;28;20125;-83
2022/07/28 05:01:04;;;;;;;4.43;0.70;;;18.60;68.80;;;;;;5059717;28;20469;-83
2022/07/28 05:03:29;;;;;;;1.55;0.52;;;18.60;68.80;;;;;;5059724;28;20025;-83
2022/07/28 05:05:55;;;;;;;3.88;0.80;;;18.50;69.20;;;;;;5076817;28;20033;-84
2022/07/28 05:08:22;;;;;;;4.18;0.73;;;18.50;69.80;;;;;;5059153;28;20034;-82
2022/07/28 05:10:48;;;;;;;7.70;1.30;;;18.50;69.20;;;;;;5059053;28;20059;-82
2022/07/28 05:13:13;;;;;;;3.35;0.65;;;18.50;69.20;;;;;;5059009;28;20028;-84
2022/07/28 05:15:39;;;;;;;2.85;0.60;;;18.50;69.30;;;;;;5059009;28;20120;-84
2022/07/28 05:18:04;;;;;;;4.18;0.60;;;18.50;69.40;;;;;;5077106;28;20449;-84
2022/07/28 05:20:30;;;;;;;4.00;0.85;;;18.50;69.60;;;;;;5059241;28;20478;-83
2022/07/28 05:22:58;;;;;;;1.90;0.43;;;18.50;69.10;;;;;;5076638;28;20032;-83
2022/07/28 05:25:24;;;;;;;4.38;0.52;;;18.60;69.20;;;;;;5059321;28;20108;-84
2022/07/28 05:27:51;;;;;;;3.05;0.60;;;18.60;69.10;;;;;;5058337;28;20074;-84
2022/07/28 05:30:18;;;;;;;2.47;0.50;;;18.70;69.10;;;;;;5076883;28;20035;-83
2022/07/28 05:32:44;;;;;;;1.88;0.50;;;18.70;69.40;;;;;;5058454;28;20036;-84
2022/07/28 05:35:10;;;;;;;2.60;0.80;;;18.70;69.20;;;;;;5076545;28;20025;-83
2022/07/28 05:37:36;;;;;;;2.67;0.65;;;18.80;69.20;;;;;;5076136;28;20021;-83
2022/07/28 05:40:07;;;;;;;4.40;0.70;;;18.80;69.30;;;;;;5058869;28;20043;-83
2022/07/28 05:42:34;;;;;;;3.58;0.60;;;18.80;69.20;;;;;;5059221;28;20070;-83
2022/07/28 05:45:02;;;;;;;4.95;0.70;;;18.80;69.20;;;;;;5076877;28;20457;-82
2022/07/28 05:47:28;;;;;;;2.25;0.40;;;18.80;69.20;;;;;;5058406;28;20024;-83
2022/07/28 05:49:58;;;;;;;6.22;0.80;;;18.80;69.30;;;;;;5058174;28;20054;-83
2022/07/28 05:52:25;;;;;;;2.92;0.63;;;18.90;69.80;;;;;;5058616;28;20028;-83
2022/07/28 05:54:51;;;;;;;0.90;0.63;;;18.90;69.40;;;;;;5058309;28;20024;-83
2022/07/28 05:57:16;;;;;;;2.95;0.70;;;18.90;69.40;;;;;;5058465;28;20025;-84
2022/07/28 05:59:42;;;;;;;2.78;0.75;;;19.00;69.40;;;;;;5075741;28;20108;-84
2022/07/28 06:02:09;;;;;;;1.65;0.65;;;19.00;69.20;;;;;;5076155;28;20449;-83
2022/07/28 06:04:35;;;;;;;1.02;0.75;;;19.00;69.20;;;;;;5057591;28;20035;-84
2022/07/28 06:07:00;;;;;;;2.63;0.70;;;19.10;69.50;;;;;;5058239;28;20025;-85
2022/07/28 06:09:26;;;;;;;2.15;0.63;;;19.10;69.20;;;;;;5076275;28;20028;-85
2022/07/28 06:11:52;;;;;;;1.15;0.75;;;19.20;69.20;;;;;;5057662;28;20457;-83
2022/07/28 06:14:17;;;;;;;3.25;0.60;;;19.20;69.50;;;;;;5058863;28;20031;-83
2022/07/28 06:16:43;;;;;;;4.22;0.80;;;19.20;69.60;;;;;;5058223;28;20021;-82
2022/07/28 06:19:09;;;;;;;3.70;0.55;;;19.20;69.30;;;;;;5058603;28;20045;-83
2022/07/28 06:21:35;;;;;;;1.88;0.70;;;19.30;69.40;;;;;;5075904;28;20074;-84
2022/07/28 06:24:01;;;;;;;1.33;0.52;;;19.30;69.20;;;;;;5058111;28;20024;-82
2022/07/28 06:26:26;;;;;;;2.38;0.60;;;19.40;69.30;;;;;;5075180;28;20504;-84
2022/07/28 06:28:52;;;;;;;5.95;0.70;;;19.40;69.40;;;;;;5074244;28;20056;-84
2022/07/28 06:31:17;;;;;;;2.63;0.98;;;19.40;69.30;;;;;;5057748;28;20500;-85
2022/07/28 06:33:43;;;;;;;2.20;0.65;;;19.50;69.50;;;;;;5057204;28;20024;-83
2022/07/28 06:36:09;;;;;;;0.95;0.60;;;19.40;69.40;;;;;;5057480;28;20031;-85
2022/07/28 06:38:34;;;;;;;3.65;0.60;;;19.40;69.50;;;;;;5057651;28;20042;-83
2022/07/28 06:41:00;;;;;;;4.28;0.60;;;19.50;69.70;;;;;;5056840;28;20040;-84
2022/07/28 06:43:26;;;;;;;2.35;0.60;;;19.50;69.70;;;;;;5057594;28;20025;-81
2022/07/28 06:45:51;;;;;;;2.17;0.73;;;19.60;69.50;;;;;;5074670;28;20059;-80
2022/07/28 06:48:18;;;;;;;2.70;0.93;;;19.60;69.30;;;;;;5055495;28;20029;-84
2022/07/28 06:50:44;;;;;;;3.25;1.00;;;19.60;69.40;;;;;;5056504;28;20056;-84
2022/07/28 06:53:10;;;;;;;1.60;0.70;;;19.70;69.50;;;;;;5056718;28;20021;-84
2022/07/28 06:55:37;;;;;;;7.05;0.80;;;19.70;69.50;;;;;;5056589;28;20035;-84
2022/07/28 06:58:03;;;;;;;5.50;1.10;;;19.80;69.50;;;;;;5054927;28;20111;-88
2022/07/28 07:00:29;;;;;;;3.33;0.80;;;19.80;69.20;;;;;;5055739;28;20032;-88
2022/07/28 07:02:55;;;;;;;3.88;0.70;;;19.80;69.10;;;;;;5056256;28;20055;-88
2022/07/28 07:05:21;;;;;;;4.93;0.82;;;19.80;69.90;;;;;;5056434;28;20028;-87
2022/07/28 07:07:47;;;;;;;3.47;0.70;;;19.90;69.30;;;;;;5055858;28;20113;-85
2022/07/28 07:10:13;;;;;;;1.83;0.85;;;19.90;69.30;;;;;;5045561;28;20033;-90
2022/07/28 07:12:38;;;;;;;2.63;0.80;;;20.00;69.30;;;;;;5057075;28;20021;-89
2022/07/28 07:15:05;;;;;;;3.65;0.93;;;20.00;69.30;;;;;;5056239;28;20028;-91
2022/07/28 07:17:31;;;;;;;3.65;0.90;;;20.10;69.30;;;;;;5073496;28;20021;-88
2022/07/28 07:19:56;;;;;;;3.20;1.00;;;20.10;69.50;;;;;;5055706;28;20036;-89
2022/07/28 07:22:22;;;;;;;1.25;0.70;;;20.20;69.60;;;;;;5056146;28;20115;-88
2022/07/28 07:24:48;;;;;;;1.70;0.85;;;20.30;69.40;;;;;;5073298;28;20024;-89
2022/07/28 07:27:13;;;;;;;1.73;0.77;;;20.40;69.30;;;;;;5055739;28;20047;-87
2022/07/28 07:29:39;;;;;;;3.10;1.08;;;20.40;69.30;;;;;;5073315;28;20037;-89
2022/07/28 07:32:05;;;;;;;2.85;0.85;;;20.50;69.20;;;;;;5055962;28;20077;-87
2022/07/28 07:34:31;;;;;;;0.90;0.70;;;20.60;69.00;;;;;;5055613;28;20025;-81
2022/07/28 07:36:57;;;;;;;1.92;0.70;;;20.60;68.70;;;;;;5055555;28;20457;-86
2022/07/28 07:39:22;;;;;;;3.45;0.80;;;20.60;68.60;;;;;;5053719;28;20123;-83
2022/07/28 07:41:48;;;;;;;3.72;1.02;;;20.70;68.90;;;;;;5073088;28;20029;-85
2022/07/28 07:44:14;;;;;;;4.07;1.00;;;20.70;68.60;;;;;;5055530;28;20027;-86
2022/07/28 07:46:39;;;;;;;1.10;0.90;;;20.80;68.60;;;;;;5054767;28;20055;-85
2022/07/28 07:49:05;;;;;;;3.95;1.33;;;20.80;68.70;;;;;;5055402;28;20074;-81
2022/07/28 07:51:31;;;;;;;1.67;0.80;;;20.90;68.80;;;;;;5055404;28;20469;-83
2022/07/28 07:53:56;;;;;;;5.18;1.30;;;21.00;68.80;;;;;;5055046;28;20423;-84
2022/07/28 07:56:22;;;;;;;4.22;1.50;;;21.00;68.70;;;;;;5055356;28;20027;-84
2022/07/28 07:58:48;;;;;;;2.28;1.00;;;21.00;68.50;;;;;;5055144;28;20033;-84
2022/07/28 08:01:14;;;;;;;3.17;0.98;;;21.20;68.70;;;;;;5054948;28;20385;-87
2022/07/28 08:03:41;;;;;;;4.78;1.15;;;21.20;68.60;;;;;;5072343;28;20024;-85
2022/07/28 08:06:07;;;;;;;3.00;1.02;;;21.30;68.30;;;;;;5054042;28;20025;-82
2022/07/28 08:08:32;;;;;;;1.80;0.90;;;21.40;68.30;;;;;;5071591;28;20022;-85
2022/07/28 08:10:58;;;;;;;2.95;1.33;;;21.50;68.10;;;;;;5054631;28;20599;-85
2022/07/28 08:13:23;;;;;;;2.13;1.15;;;21.50;68.10;;;;;;5055058;28;20020;-86
2022/07/28 08:15:49;;;;;;;4.18;1.25;;;21.60;68.30;;;;;;5054803;28;20311;-87
2022/07/28 08:18:15;;;;;;;4.07;1.30;;;21.60;68.30;;;;;;5062177;28;20033;-86
2022/07/28 08:20:40;;;;;;;3.70;1.65;;;21.70;68.60;;;;;;5072462;28;20052;-85
2022/07/28 08:23:06;;;;;;;1.98;1.30;;;21.70;68.50;;;;;;5073485;28;20032;-90
2022/07/28 08:25:36;;;;;;;2.78;1.40;;;21.80;68.80;;;;;;5054404;28;20063;-83
2022/07/28 08:28:01;;;;;;;4.15;1.50;;;21.80;68.50;;;;;;5071471;28;20135;-83
2022/07/28 08:30:27;;;;;;;4.32;1.70;;;21.90;68.40;;;;;;5072395;28;20065;-78
2022/07/28 08:32:52;;;;;;;4.30;1.50;;;21.90;68.50;;;;;;5072094;28;20025;-87
2022/07/28 08:35:18;;;;;;;3.35;1.70;;;21.90;68.60;;;;;;5054379;28;20021;-83
2022/07/28 08:37:44;;;;;;;4.28;1.63;;;22.00;68.80;;;;;;5054737;28;20385;-83
2022/07/28 08:40:15;;;;;;;6.05;1.50;;;22.10;68.70;;;;;;5054780;28;20175;-83
2022/07/28 08:42:49;;;;;;;;;;;22.20;68.70;;;;;;5062879;28;20017;-83
2022/07/28 08:45:16;;;;;;;3.72;1.60;;;22.20;68.60;;;;;;5056390;28;19915;-84
2022/07/28 08:47:42;;;;;;;15.68;2.33;;;22.20;68.70;;;;;;5048874;28;20032;-80
2022/07/28 08:50:10;;;;;;;5.97;1.70;;;22.30;68.50;;;;;;5054090;28;20029;-80
2022/07/28 08:52:38;;;;;;;2.25;1.40;;;22.40;68.40;;;;;;5072401;28;20126;-88
2022/07/28 08:55:06;;;;;;;3.40;1.80;;;22.40;68.50;;;;;;5048364;28;20036;-85
2022/07/28 08:57:39;;;;;;;3.38;1.80;;;22.50;68.50;;;;;;5069192;28;20032;-81
2022/07/28 09:00:07;;;;;;;4.53;1.60;;;22.50;68.50;;;;;;5072102;28;20036;-86
2022/07/28 09:02:37;;;;;;;3.63;1.75;;;22.50;68.70;;;;;;5072679;28;20025;-86
2022/07/28 09:05:03;;;;;;;5.72;1.95;;;22.60;68.80;;;;;;5053646;28;20115;-84
2022/07/28 09:07:30;;;;;;;2.33;1.50;;;22.70;68.50;;;;;;5054031;28;20047;-82
2022/07/28 09:09:56;;;;;;;5.47;1.90;;;22.70;68.00;;;;;;5070288;28;20060;-87
2022/07/28 09:12:21;;;;;;;4.22;2.10;;;22.70;68.10;;;;;;5054085;28;20067;-81
2022/07/28 09:14:47;;;;;;;4.63;2.03;;;22.80;68.80;;;;;;5053958;28;20092;-81
2022/07/28 09:17:13;;;;;;;4.78;2.15;;;22.80;68.00;;;;;;5053123;28;20032;-80
2022/07/28 09:19:39;;;;;;;4.70;1.80;;;22.80;68.00;;;;;;5053872;28;20045;-79
2022/07/28 09:22:06;;;;;;;3.55;1.80;;;22.90;68.10;;;;;;5072353;28;20027;-80
2022/07/28 09:24:40;;;;;;;1.85;1.63;;;23.00;68.30;;;;;;5057935;28;20028;-79
2022/07/28 09:27:10;;;;;;;4.78;1.92;;;23.10;68.20;;;;;;5057553;28;20076;-79
2022/07/28 09:29:39;;;;;;;2.88;1.90;;;23.10;67.80;;;;;;5057460;28;20028;-79
2022/07/28 09:32:05;;;;;;;2.53;1.73;;;23.10;67.60;;;;;;5056870;28;20029;-80
2022/07/28 09:34:44;;;;;;;4.18;1.90;;;23.20;68.00;;;;;;5057607;28;20069;-80
2022/07/28 09:37:20;;;;;;;5.85;2.00;;;23.30;68.20;;;;;;5057563;28;20024;-79
2022/07/28 09:39:47;;;;;;;6.88;2.20;;;23.50;68.00;;;;;;5056280;28;20527;-79
2022/07/28 09:42:13;;;;;;;6.03;2.00;;;23.60;67.70;;;;;;5074765;28;20056;-81
2022/07/28 09:44:39;;;;;;;4.38;2.00;;;23.60;67.70;;;;;;5057379;28;20461;-79
2022/07/28 09:47:26;;;;;;;4.82;2.15;;;23.70;67.80;;;;;;5056595;28;20029;-80
2022/07/28 09:49:52;;;;;;;4.88;2.08;;;23.70;67.40;;;;;;5074913;28;20037;-80
2022/07/28 09:52:36;;;;;;;5.28;2.28;;;23.70;67.40;;;;;;5057131;28;20377;-80
2022/07/28 09:55:08;;;;;;;3.47;2.28;;;23.80;67.40;;;;;;5056730;28;20042;-78
2022/07/28 09:57:36;;;;;;;4.00;2.13;;;24.00;67.30;;;;;;5056943;28;20385;-79
2022/07/28 10:00:07;;;;;;;3.55;2.38;;;24.10;67.00;;;;;;5056293;28;20037;-79
2022/07/28 10:02:33;;;;;;;5.50;2.35;;;24.20;66.80;;;;;;5057135;28;20025;-79
2022/07/28 10:04:59;;;;;;;3.10;2.08;;;24.40;66.50;;;;;;5074360;28;20182;-79
2022/07/28 10:07:28;;;;;;;5.57;2.30;;;24.60;66.30;;;;;;5056838;28;20029;-79
2022/07/28 10:10:01;;;;;;;3.88;2.08;;;24.70;65.90;;;;;;5072220;28;20518;-79
2022/07/28 10:12:29;;;;;;;7.25;2.33;;;24.80;65.60;;;;;;5055056;28;20024;-78
2022/07/28 10:14:58;;;;;;;3.55;2.08;;;25.00;65.60;;;;;;5074002;28;20025;-79
2022/07/28 10:17:23;;;;;;;4.40;2.10;;;25.10;65.10;;;;;;5050390;28;20126;-79
2022/07/28 10:19:53;;;;;;;3.03;2.20;;;25.30;64.70;;;;;;5051139;28;20044;-79
2022/07/28 10:22:20;;;;;;;4.97;2.38;;;25.40;64.30;;;;;;5056205;28;20028;-79
2022/07/28 10:24:51;;;;;;;2.75;2.10;;;25.60;64.10;;;;;;5056187;28;20016;-79
2022/07/28 10:27:19;;;;;;;4.60;2.45;;;25.60;64.10;;;;;;5073955;28;20097;-80
2022/07/28 10:29:44;;;;;;;7.35;2.13;;;25.60;63.70;;;;;;5055702;28;20435;-80
2022/07/28 10:32:11;;;;;;;4.47;2.50;;;25.60;63.50;;;;;;5056257;28;20078;-78
2022/07/28 10:34:47;;;;;;;5.30;2.20;;;25.70;63.60;;;;;;5055156;28;20469;-79
2022/07/28 10:37:21;;;;;;;3.88;2.30;;;25.70;63.40;;;;;;5056588;28;20096;-79
2022/07/28 10:40:05;;;;;;;3.00;2.00;;;25.90;63.40;;;;;;5071611;28;20365;-79
2022/07/28 10:42:31;;;;;;;3.45;2.17;;;25.90;62.70;;;;;;5055046;28;20070;-80
2022/07/28 10:44:58;;;;;;;3.33;2.67;;;25.90;62.90;;;;;;5055734;28;20078;-80
2022/07/28 10:47:27;;;;;;;5.85;2.60;;;26.00;63.00;;;;;;5056008;28;20082;-81
2022/07/28 10:49:54;;;;;;;3.28;2.10;;;26.00;62.50;;;;;;5073484;28;20064;-80
2022/07/28 10:52:20;;;;;;;6.22;2.33;;;26.10;62.50;;;;;;5055769;28;20078;-80
2022/07/28 10:55:02;;;;;;;3.88;2.13;;;26.30;62.60;;;;;;5073099;28;20043;-80
2022/07/28 10:57:30;;;;;;;3.95;2.10;;;26.50;61.90;;;;;;5073765;28;20021;-79
2022/07/28 11:00:16;;;;;;;6.75;2.35;;;26.50;61.60;;;;;;5055466;28;20056;-81
2022/07/28 11:02:44;;;;;;;5.18;2.13;;;26.60;61.30;;;;;;5041760;28;20090;-80
2022/07/28 11:05:37;;;;;;;3.55;2.15;;;26.80;61.30;;;;;;5056005;28;20526;-80
2022/07/28 11:08:23;;;;;;;5.88;2.30;;;26.80;60.90;;;;;;5054974;28;20362;-80
2022/07/28 11:10:50;;;;;;;2.70;1.95;;;26.80;60.80;;;;;;5028034;28;20029;-80
2022/07/28 11:13:24;;;;;;;6.25;2.00;;;26.90;60.90;;;;;;5055617;28;20025;-81
2022/07/28 11:15:51;;;;;;;4.70;2.80;;;27.00;60.60;;;;;;5055360;28;20028;-80
2022/07/28 11:18:17;;;;;;;3.53;2.10;;;27.20;60.60;;;;;;5055200;28;20059;-81
2022/07/28 11:21:04;;;;;;;3.58;2.25;;;27.40;60.10;;;;;;5055400;28;20489;-79
2022/07/28 11:23:54;;;;;;;7.80;2.40;;;27.50;59.70;;;;;;5055046;28;20029;-80
2022/07/28 11:26:19;;;;;;;3.42;1.98;;;27.50;59.90;;;;;;5059981;28;20098;-80
2022/07/28 11:29:04;;;;;;;3.90;2.20;;;27.50;59.70;;;;;;5054755;28;20051;-80
2022/07/28 11:31:45;;;;;;;3.90;2.10;;;27.50;59.50;;;;;;5054850;28;20032;-82
2022/07/28 11:34:14;;;;;;;6.43;2.25;;;27.60;59.60;;;;;;5055170;28;20477;-80
2022/07/28 11:37:03;;;;;;;5.90;2.20;;;27.60;60.50;;;;;;5038960;28;20480;-79
2022/07/28 11:39:36;;;;;;;3.78;2.10;;;27.60;59.00;;;;;;5041593;28;20128;-79
2022/07/28 11:42:29;;;;;;;3.97;2.33;;;27.60;59.80;;;;;;5050058;28;20090;-81
2022/07/28 11:45:15;;;;;;;8.85;2.35;;;27.80;59.30;;;;;;5059424;28;20392;-80
2022/07/28 11:47:41;;;;;;;3.80;2.35;;;27.80;59.10;;;;;;5054440;28;20025;-79
2022/07/28 11:50:15;;;;;;;4.53;2.10;;;28.00;59.10;;;;;;5054492;28;20039;-80
2022/07/28 11:52:55;;;;;;;3.45;2.15;;;28.00;58.90;;;;;;5072743;28;20017;-80
2022/07/28 11:55:21;;;;;;;4.60;2.25;;;28.00;58.70;;;;;;5054920;28;20384;-80
2022/07/28 11:57:47;;;;;;;4.18;2.20;;;28.10;58.60;;;;;;5055065;28;20025;-84
2022/07/28 12:00:21;;;;;;;7.45;2.47;;;28.10;58.70;;;;;;5072572;28;20036;-80
2022/07/28 12:02:46;;;;;;;5.65;2.20;;;28.10;58.50;;;;;;5040719;28;20023;-80
2022/07/28 12:05:16;;;;;;;4.93;2.42;;;28.00;58.80;;;;;;5072825;28;20025;-80
2022/07/28 12:07:48;;;;;;;4.15;2.40;;;27.90;59.00;;;;;;5054623;28;20487;-79
2022/07/28 12:10:24;;;;;;;3.75;2.30;;;28.00;59.00;;;;;;5069313;28;20347;-80
2022/07/28 12:12:52;;;;;;;3.53;2.10;;;28.10;58.50;;;;;;5054370;28;20017;-79
2022/07/28 12:15:20;;;;;;;3.03;2.05;;;28.30;58.80;;;;;;5072752;28;20064;-80
2022/07/28 12:17:47;;;;;;;6.18;2.15;;;28.30;58.00;;;;;;5045303;28;20043;-83
2022/07/28 12:20:16;;;;;;;3.47;2.30;;;28.40;58.80;;;;;;5052715;28;20066;-79
2022/07/28 12:22:54;;;;;;;3.50;2.28;;;28.40;58.00;;;;;;5054335;28;20524;-80
2022/07/28 12:25:20;;;;;;;3.33;2.38;;;28.40;57.50;;;;;;5054760;28;20036;-81
2022/07/28 12:27:46;;;;;;;5.75;2.47;;;28.40;57.80;;;;;;5071609;28;20052;-80
2022/07/28 12:30:19;;;;;;;5.05;2.30;;;28.50;57.70;;;;;;5054473;28;20507;-81
2022/07/28 12:32:45;;;;;;;5.88;2.50;;;28.50;57.60;;;;;;5040582;28;20485;-90
2022/07/28 12:35:10;;;;;;;5.05;2.17;;;28.70;57.60;;;;;;5072495;28;20152;-81
2022/07/28 12:37:36;;;;;;;3.83;2.20;;;28.80;57.20;;;;;;5054446;28;20141;-80
2022/07/28 12:40:02;;;;;;;4.68;1.88;;;28.90;57.20;;;;;;5053548;28;20054;-81
2022/07/28 12:42:30;;;;;;;4.57;2.45;;;28.90;57.10;;;;;;5054326;28;20020;-81
2022/07/28 12:45:01;;;;;;;2.85;2.22;;;28.90;56.50;;;;;;5054323;28;20059;-80
2022/07/28 12:47:27;;;;;;;3.25;2.30;;;29.00;56.40;;;;;;5048048;28;20470;-79
2022/07/28 12:50:19;;;;;;;3.80;2.10;;;29.10;56.40;;;;;;5049569;28;20039;-82
2022/07/28 12:53:06;;;;;;;3.78;2.15;;;29.20;55.80;;;;;;5041032;28;20020;-86
2022/07/28 12:55:33;;;;;;;4.03;2.40;;;29.30;55.80;;;;;;5072707;28;20024;-81
2022/07/28 12:57:59;;;;;;;2.85;2.40;;;29.30;55.50;;;;;;5056095;28;20028;-81